sensor_id;sensor_type;location;lat;lon;timestamp;temperature;humidity
12872;DHT22;6504;53.766;9.626;2023-11-21T00:00:38;8.30;99.90
12872;DHT22;6504;53.766;9.626;2023-11-21T00:03:06;8.30;99.90
12872;DHT22;6504;53.766;9.626;2023-11-21T00:05:34;8.30;99.90
12872;DHT22;6504;53.766;9.626;2023-11-21T00:08:04;8.30;99.90
12872;DHT22;6504;53.766;9.626;2023-11-21T00:10:33;8.30;99.90
12872;DHT22;6504;53.766;9.626;2023-11-21T00:13:01;8.20;99.90
12872;DHT22;6504;53.766;9.626;2023-11-21T00:15:29;8.20;99.90
12872;DHT22;6504;53.766;9.626;2023-11-21T00:17:57;8.20;99.90
12872;DHT22;6504;53.766;9.626;2023-11-21T00:20:25;8.20;99.90
12872;DHT22;6504;53.766;9.626;2023-11-21T00:22:53;8.20;99.90
12872;DHT22;6504;53.766;9.626;2023-11-21T00:25:23;8.10;99.90
12872;DHT22;6504;53.766;9.626;2023-11-21T00:27:52;8.10;99.90
12872;DHT22;6504;53.766;9.626;2023-11-21T00:30:20;8.10;99.90
12872;DHT22;6504;53.766;9.626;2023-11-21T00:32:49;8.00;99.90
12872;DHT22;6504;53.766;9.626;2023-11-21T00:35:17;8.00;99.90
12872;DHT22;6504;53.766;9.626;2023-11-21T00:37:45;8.00;99.90
12872;DHT22;6504;53.766;9.626;2023-11-21T00:40:14;8.00;99.90
12872;DHT22;6504;53.766;9.626;2023-11-21T00:42:47;8.00;99.90
12872;DHT22;6504;53.766;9.626;2023-11-21T00:45:15;7.90;99.90
12872;DHT22;6504;53.766;9.626;2023-11-21T00:47:43;7.90;99.90
12872;DHT22;6504;53.766;9.626;2023-11-21T00:50:12;7.90;99.90
12872;DHT22;6504;53.766;9.626;2023-11-21T00:52:40;7.90;99.90
12872;DHT22;6504;53.766;9.626;2023-11-21T00:55:08;7.90;99.90
12872;DHT22;6504;53.766;9.626;2023-11-21T00:57:38;7.90;99.90
12872;DHT22;6504;53.766;9.626;2023-11-21T01:00:09;7.90;99.90
12872;DHT22;6504;53.766;9.626;2023-11-21T01:02:40;7.80;99.90
12872;DHT22;6504;53.766;9.626;2023-11-21T01:05:09;7.80;99.90
12872;DHT22;6504;53.766;9.626;2023-11-21T01:07:38;7.80;99.90
12872;DHT22;6504;53.766;9.626;2023-11-21T01:10:06;7.80;99.90
12872;DHT22;6504;53.766;9.626;2023-11-21T01:12:36;7.80;99.90
12872;DHT22;6504;53.766;9.626;2023-11-21T01:15:06;7.80;99.90
12872;DHT22;6504;53.766;9.626;2023-11-21T01:17:36;7.70;99.90
12872;DHT22;6504;53.766;9.626;2023-11-21T01:20:05;7.70;99.90
12872;DHT22;6504;53.766;9.626;2023-11-21T01:22:38;7.70;99.90
12872;DHT22;6504;53.766;9.626;2023-11-21T01:25:07;7.70;99.90
12872;DHT22;6504;53.766;9.626;2023-11-21T01:27:35;7.70;99.90
12872;DHT22;6504;53.766;9.626;2023-11-21T01:30:04;7.70;99.90
12872;DHT22;6504;53.766;9.626;2023-11-21T01:32:36;7.60;99.90
12872;DHT22;6504;53.766;9.626;2023-11-21T01:35:04;7.60;99.90
12872;DHT22;6504;53.766;9.626;2023-11-21T01:37:33;7.60;99.90
12872;DHT22;6504;53.766;9.626;2023-11-21T01:40:01;7.60;99.90
12872;DHT22;6504;53.766;9.626;2023-11-21T01:42:31;7.60;99.90
12872;DHT22;6504;53.766;9.626;2023-11-21T01:45:00;7.60;99.90
12872;DHT22;6504;53.766;9.626;2023-11-21T01:47:31;7.50;99.90
12872;DHT22;6504;53.766;9.626;2023-11-21T01:50:01;7.50;99.90
12872;DHT22;6504;53.766;9.626;2023-11-21T01:52:31;7.50;99.90
12872;DHT22;6504;53.766;9.626;2023-11-21T01:54:59;7.50;99.90
12872;DHT22;6504;53.766;9.626;2023-11-21T01:57:28;7.50;99.90
12872;DHT22;6504;53.766;9.626;2023-11-21T01:59:57;7.50;99.90
12872;DHT22;6504;53.766;9.626;2023-11-21T02:02:26;7.50;99.90
12872;DHT22;6504;53.766;9.626;2023-11-21T02:04:54;7.50;99.90
12872;DHT22;6504;53.766;9.626;2023-11-21T02:07:24;7.50;99.90
12872;DHT22;6504;53.766;9.626;2023-11-21T02:09:52;7.50;99.90
12872;DHT22;6504;53.766;9.626;2023-11-21T02:12:20;7.50;99.90
12872;DHT22;6504;53.766;9.626;2023-11-21T02:14:48;7.40;99.90
12872;DHT22;6504;53.766;9.626;2023-11-21T02:17:17;7.50;99.90
12872;DHT22;6504;53.766;9.626;2023-11-21T02:19:45;7.40;99.90
12872;DHT22;6504;53.766;9.626;2023-11-21T02:22:14;7.40;99.90
12872;DHT22;6504;53.766;9.626;2023-11-21T02:24:45;7.40;99.90
12872;DHT22;6504;53.766;9.626;2023-11-21T02:27:14;7.40;99.90
12872;DHT22;6504;53.766;9.626;2023-11-21T02:29:47;7.40;99.90
12872;DHT22;6504;53.766;9.626;2023-11-21T02:32:15;7.30;99.90
12872;DHT22;6504;53.766;9.626;2023-11-21T02:34:45;7.30;99.90
12872;DHT22;6504;53.766;9.626;2023-11-21T02:37:14;7.30;99.90
12872;DHT22;6504;53.766;9.626;2023-11-21T02:39:42;7.30;99.90
12872;DHT22;6504;53.766;9.626;2023-11-21T02:42:12;7.30;99.90
12872;DHT22;6504;53.766;9.626;2023-11-21T02:44:41;7.30;99.90
12872;DHT22;6504;53.766;9.626;2023-11-21T02:47:09;7.30;99.90
12872;DHT22;6504;53.766;9.626;2023-11-21T02:49:37;7.30;99.90
12872;DHT22;6504;53.766;9.626;2023-11-21T02:52:05;7.30;99.90
12872;DHT22;6504;53.766;9.626;2023-11-21T02:54:33;7.30;99.90
12872;DHT22;6504;53.766;9.626;2023-11-21T02:57:03;7.30;99.90
12872;DHT22;6504;53.766;9.626;2023-11-21T02:59:33;7.30;99.90
12872;DHT22;6504;53.766;9.626;2023-11-21T03:02:02;7.30;99.90
12872;DHT22;6504;53.766;9.626;2023-11-21T03:04:30;7.30;99.90
12872;DHT22;6504;53.766;9.626;2023-11-21T03:06:59;7.30;99.90
12872;DHT22;6504;53.766;9.626;2023-11-21T03:09:27;7.30;99.90
12872;DHT22;6504;53.766;9.626;2023-11-21T03:11:55;7.30;99.90
12872;DHT22;6504;53.766;9.626;2023-11-21T03:14:23;7.30;99.90
12872;DHT22;6504;53.766;9.626;2023-11-21T03:16:52;7.20;99.90
12872;DHT22;6504;53.766;9.626;2023-11-21T03:19:20;7.20;99.90
12872;DHT22;6504;53.766;9.626;2023-11-21T03:21:48;7.20;99.90
12872;DHT22;6504;53.766;9.626;2023-11-21T03:24:17;7.20;99.90
12872;DHT22;6504;53.766;9.626;2023-11-21T03:26:46;7.20;99.90
12872;DHT22;6504;53.766;9.626;2023-11-21T03:29:14;7.20;99.90
12872;DHT22;6504;53.766;9.626;2023-11-21T03:31:42;7.10;99.90
12872;DHT22;6504;53.766;9.626;2023-11-21T03:34:16;7.10;99.90
12872;DHT22;6504;53.766;9.626;2023-11-21T03:36:44;7.10;99.90
12872;DHT22;6504;53.766;9.626;2023-11-21T03:39:13;7.10;99.90
12872;DHT22;6504;53.766;9.626;2023-11-21T03:41:41;7.10;99.90
12872;DHT22;6504;53.766;9.626;2023-11-21T03:44:09;7.10;99.90
12872;DHT22;6504;53.766;9.626;2023-11-21T03:46:37;7.00;99.90
12872;DHT22;6504;53.766;9.626;2023-11-21T03:49:05;7.00;99.90
12872;DHT22;6504;53.766;9.626;2023-11-21T03:51:35;7.00;99.90
12872;DHT22;6504;53.766;9.626;2023-11-21T03:54:04;7.10;99.90
12872;DHT22;6504;53.766;9.626;2023-11-21T03:56:32;7.10;99.90
12872;DHT22;6504;53.766;9.626;2023-11-21T03:59:00;7.00;99.90
12872;DHT22;6504;53.766;9.626;2023-11-21T04:01:29;7.00;99.90
12872;DHT22;6504;53.766;9.626;2023-11-21T04:03:57;7.00;99.90
12872;DHT22;6504;53.766;9.626;2023-11-21T04:06:26;7.00;99.90
12872;DHT22;6504;53.766;9.626;2023-11-21T04:08:55;7.00;99.90
12872;DHT22;6504;53.766;9.626;2023-11-21T04:11:23;7.00;99.90
12872;DHT22;6504;53.766;9.626;2023-11-21T04:13:51;7.00;99.90
12872;DHT22;6504;53.766;9.626;2023-11-21T04:16:19;7.00;99.90
12872;DHT22;6504;53.766;9.626;2023-11-21T04:18:48;7.00;99.90
12872;DHT22;6504;53.766;9.626;2023-11-21T04:21:16;7.00;99.90
12872;DHT22;6504;53.766;9.626;2023-11-21T04:23:44;7.00;99.90
12872;DHT22;6504;53.766;9.626;2023-11-21T04:26:14;7.00;99.90
12872;DHT22;6504;53.766;9.626;2023-11-21T04:28:42;7.00;99.90
12872;DHT22;6504;53.766;9.626;2023-11-21T04:31:11;7.00;99.90
12872;DHT22;6504;53.766;9.626;2023-11-21T04:33:39;6.90;99.90
12872;DHT22;6504;53.766;9.626;2023-11-21T04:36:07;6.90;99.90
12872;DHT22;6504;53.766;9.626;2023-11-21T04:38:36;7.00;99.90
12872;DHT22;6504;53.766;9.626;2023-11-21T04:41:05;7.00;99.90
12872;DHT22;6504;53.766;9.626;2023-11-21T04:43:34;6.90;99.90
12872;DHT22;6504;53.766;9.626;2023-11-21T04:46:02;6.90;99.90
12872;DHT22;6504;53.766;9.626;2023-11-21T04:48:31;7.00;99.90
12872;DHT22;6504;53.766;9.626;2023-11-21T04:50:59;7.00;99.90
12872;DHT22;6504;53.766;9.626;2023-11-21T04:53:27;7.00;99.90
12872;DHT22;6504;53.766;9.626;2023-11-21T04:55:55;6.90;99.90
12872;DHT22;6504;53.766;9.626;2023-11-21T04:58:23;6.90;99.90
12872;DHT22;6504;53.766;9.626;2023-11-21T05:00:52;6.90;99.90
12872;DHT22;6504;53.766;9.626;2023-11-21T05:03:20;6.90;99.90
12872;DHT22;6504;53.766;9.626;2023-11-21T05:05:50;6.90;99.90
12872;DHT22;6504;53.766;9.626;2023-11-21T05:08:18;6.80;99.90
12872;DHT22;6504;53.766;9.626;2023-11-21T05:10:47;6.80;99.90
12872;DHT22;6504;53.766;9.626;2023-11-21T05:13:15;6.80;99.90
12872;DHT22;6504;53.766;9.626;2023-11-21T05:15:44;6.80;99.90
12872;DHT22;6504;53.766;9.626;2023-11-21T05:18:13;6.80;99.90
12872;DHT22;6504;53.766;9.626;2023-11-21T05:20:42;6.80;99.90
12872;DHT22;6504;53.766;9.626;2023-11-21T05:23:10;6.90;99.90
12872;DHT22;6504;53.766;9.626;2023-11-21T05:25:38;6.90;99.90
12872;DHT22;6504;53.766;9.626;2023-11-21T05:28:07;6.90;99.90
12872;DHT22;6504;53.766;9.626;2023-11-21T05:30:35;6.90;99.90
12872;DHT22;6504;53.766;9.626;2023-11-21T05:33:03;6.80;99.90
12872;DHT22;6504;53.766;9.626;2023-11-21T05:35:32;6.90;99.90
12872;DHT22;6504;53.766;9.626;2023-11-21T05:38:00;6.80;99.90
12872;DHT22;6504;53.766;9.626;2023-11-21T05:40:28;6.80;99.90
12872;DHT22;6504;53.766;9.626;2023-11-21T05:42:57;6.80;99.90
12872;DHT22;6504;53.766;9.626;2023-11-21T05:45:25;6.90;99.90
12872;DHT22;6504;53.766;9.626;2023-11-21T05:47:55;6.80;99.90
12872;DHT22;6504;53.766;9.626;2023-11-21T05:50:23;6.90;99.90
12872;DHT22;6504;53.766;9.626;2023-11-21T05:52:53;6.90;99.90
12872;DHT22;6504;53.766;9.626;2023-11-21T05:55:22;6.90;99.90
12872;DHT22;6504;53.766;9.626;2023-11-21T05:57:52;6.90;99.90
12872;DHT22;6504;53.766;9.626;2023-11-21T06:00:21;6.80;99.90
12872;DHT22;6504;53.766;9.626;2023-11-21T06:02:49;6.80;99.90
12872;DHT22;6504;53.766;9.626;2023-11-21T06:05:22;6.90;99.90
12872;DHT22;6504;53.766;9.626;2023-11-21T06:07:54;6.90;99.90
12872;DHT22;6504;53.766;9.626;2023-11-21T06:10:25;6.90;99.90
12872;DHT22;6504;53.766;9.626;2023-11-21T06:12:54;6.90;99.90
12872;DHT22;6504;53.766;9.626;2023-11-21T06:15:22;6.90;99.90
12872;DHT22;6504;53.766;9.626;2023-11-21T06:17:52;6.90;99.90
12872;DHT22;6504;53.766;9.626;2023-11-21T06:20:21;6.90;99.90
12872;DHT22;6504;53.766;9.626;2023-11-21T06:22:50;6.80;99.90
12872;DHT22;6504;53.766;9.626;2023-11-21T06:25:20;6.90;99.90
12872;DHT22;6504;53.766;9.626;2023-11-21T06:27:49;6.80;99.90
12872;DHT22;6504;53.766;9.626;2023-11-21T06:30:18;6.80;99.90
12872;DHT22;6504;53.766;9.626;2023-11-21T06:32:47;6.80;99.90
12872;DHT22;6504;53.766;9.626;2023-11-21T06:35:16;6.90;99.90
12872;DHT22;6504;53.766;9.626;2023-11-21T06:37:45;6.80;99.90
12872;DHT22;6504;53.766;9.626;2023-11-21T06:40:16;6.90;99.90
12872;DHT22;6504;53.766;9.626;2023-11-21T06:42:47;6.90;99.90
12872;DHT22;6504;53.766;9.626;2023-11-21T06:45:15;6.90;99.90
12872;DHT22;6504;53.766;9.626;2023-11-21T06:47:44;6.90;99.90
12872;DHT22;6504;53.766;9.626;2023-11-21T06:50:13;6.90;99.90
12872;DHT22;6504;53.766;9.626;2023-11-21T06:52:41;6.90;99.90
12872;DHT22;6504;53.766;9.626;2023-11-21T06:55:10;6.90;99.90
12872;DHT22;6504;53.766;9.626;2023-11-21T06:57:38;6.90;99.90
12872;DHT22;6504;53.766;9.626;2023-11-21T07:00:08;6.90;99.90
12872;DHT22;6504;53.766;9.626;2023-11-21T07:02:37;6.90;99.90
12872;DHT22;6504;53.766;9.626;2023-11-21T07:05:06;6.90;99.90
12872;DHT22;6504;53.766;9.626;2023-11-21T07:07:34;6.90;99.90
12872;DHT22;6504;53.766;9.626;2023-11-21T07:10:05;6.90;99.90
12872;DHT22;6504;53.766;9.626;2023-11-21T07:12:33;6.80;99.90
12872;DHT22;6504;53.766;9.626;2023-11-21T07:15:02;6.90;99.90
12872;DHT22;6504;53.766;9.626;2023-11-21T07:17:33;6.80;99.90
12872;DHT22;6504;53.766;9.626;2023-11-21T07:20:06;6.80;99.90
12872;DHT22;6504;53.766;9.626;2023-11-21T07:22:35;6.80;99.90
12872;DHT22;6504;53.766;9.626;2023-11-21T07:25:04;6.80;99.90
12872;DHT22;6504;53.766;9.626;2023-11-21T07:27:34;6.80;99.90
12872;DHT22;6504;53.766;9.626;2023-11-21T07:30:03;6.80;99.90
12872;DHT22;6504;53.766;9.626;2023-11-21T07:32:34;6.80;99.90
12872;DHT22;6504;53.766;9.626;2023-11-21T07:35:02;6.80;99.90
12872;DHT22;6504;53.766;9.626;2023-11-21T07:37:30;6.80;99.90
12872;DHT22;6504;53.766;9.626;2023-11-21T07:39:59;6.80;99.90
12872;DHT22;6504;53.766;9.626;2023-11-21T07:42:27;6.80;99.90
12872;DHT22;6504;53.766;9.626;2023-11-21T07:44:55;6.80;99.90
12872;DHT22;6504;53.766;9.626;2023-11-21T07:47:24;6.80;99.90
12872;DHT22;6504;53.766;9.626;2023-11-21T07:49:55;6.80;99.90
12872;DHT22;6504;53.766;9.626;2023-11-21T07:52:23;6.80;99.90
12872;DHT22;6504;53.766;9.626;2023-11-21T07:54:51;6.80;99.90
12872;DHT22;6504;53.766;9.626;2023-11-21T07:57:19;6.80;99.90
12872;DHT22;6504;53.766;9.626;2023-11-21T07:59:47;6.80;99.90
12872;DHT22;6504;53.766;9.626;2023-11-21T08:02:16;6.80;99.90
12872;DHT22;6504;53.766;9.626;2023-11-21T08:04:44;6.80;99.90
12872;DHT22;6504;53.766;9.626;2023-11-21T08:07:17;6.80;99.90
12872;DHT22;6504;53.766;9.626;2023-11-21T08:09:45;6.80;99.90
12872;DHT22;6504;53.766;9.626;2023-11-21T08:12:16;6.80;99.90
12872;DHT22;6504;53.766;9.626;2023-11-21T08:14:44;6.80;99.90
12872;DHT22;6504;53.766;9.626;2023-11-21T08:17:12;6.80;99.90
12872;DHT22;6504;53.766;9.626;2023-11-21T08:19:42;6.80;99.90
12872;DHT22;6504;53.766;9.626;2023-11-21T08:22:17;6.80;99.90
12872;DHT22;6504;53.766;9.626;2023-11-21T08:24:45;6.80;99.90
12872;DHT22;6504;53.766;9.626;2023-11-21T08:27:13;6.80;99.90
12872;DHT22;6504;53.766;9.626;2023-11-21T08:29:42;6.80;99.90
12872;DHT22;6504;53.766;9.626;2023-11-21T08:32:10;6.80;99.90
12872;DHT22;6504;53.766;9.626;2023-11-21T08:34:38;6.80;99.90
12872;DHT22;6504;53.766;9.626;2023-11-21T08:37:10;6.80;99.90
12872;DHT22;6504;53.766;9.626;2023-11-21T08:39:40;6.80;99.90
12872;DHT22;6504;53.766;9.626;2023-11-21T08:42:08;6.80;99.90
12872;DHT22;6504;53.766;9.626;2023-11-21T08:44:36;6.80;99.90
12872;DHT22;6504;53.766;9.626;2023-11-21T08:47:05;6.80;99.90
12872;DHT22;6504;53.766;9.626;2023-11-21T08:49:34;6.80;99.90
12872;DHT22;6504;53.766;9.626;2023-11-21T08:52:03;6.90;99.90
12872;DHT22;6504;53.766;9.626;2023-11-21T08:54:32;6.90;99.90
12872;DHT22;6504;53.766;9.626;2023-11-21T08:57:02;6.90;99.90
12872;DHT22;6504;53.766;9.626;2023-11-21T08:59:30;6.90;99.90
12872;DHT22;6504;53.766;9.626;2023-11-21T09:01:58;6.90;99.90
12872;DHT22;6504;53.766;9.626;2023-11-21T09:04:26;6.90;99.90
12872;DHT22;6504;53.766;9.626;2023-11-21T09:06:55;6.80;99.90
12872;DHT22;6504;53.766;9.626;2023-11-21T09:09:23;6.80;99.90
12872;DHT22;6504;53.766;9.626;2023-11-21T09:11:51;6.80;99.90
12872;DHT22;6504;53.766;9.626;2023-11-21T09:14:21;6.90;99.90
12872;DHT22;6504;53.766;9.626;2023-11-21T09:16:49;6.90;99.90
12872;DHT22;6504;53.766;9.626;2023-11-21T09:19:17;6.90;99.90
12872;DHT22;6504;53.766;9.626;2023-11-21T09:21:46;6.90;99.90
12872;DHT22;6504;53.766;9.626;2023-11-21T09:24:14;6.90;99.90
12872;DHT22;6504;53.766;9.626;2023-11-21T09:26:42;6.90;99.90
12872;DHT22;6504;53.766;9.626;2023-11-21T09:29:10;6.90;99.90
12872;DHT22;6504;53.766;9.626;2023-11-21T09:31:39;6.90;99.90
12872;DHT22;6504;53.766;9.626;2023-11-21T09:34:09;6.90;99.90
12872;DHT22;6504;53.766;9.626;2023-11-21T09:36:38;7.00;99.90
12872;DHT22;6504;53.766;9.626;2023-11-21T09:39:06;6.90;99.90
12872;DHT22;6504;53.766;9.626;2023-11-21T09:41:43;7.00;99.90
12872;DHT22;6504;53.766;9.626;2023-11-21T09:44:14;7.00;99.90
12872;DHT22;6504;53.766;9.626;2023-11-21T09:46:48;7.00;99.90
12872;DHT22;6504;53.766;9.626;2023-11-21T09:49:18;7.00;99.90
12872;DHT22;6504;53.766;9.626;2023-11-21T09:51:54;7.00;99.90
12872;DHT22;6504;53.766;9.626;2023-11-21T09:54:24;7.00;99.90
12872;DHT22;6504;53.766;9.626;2023-11-21T09:56:53;7.00;99.90
12872;DHT22;6504;53.766;9.626;2023-11-21T09:59:21;7.00;99.90
12872;DHT22;6504;53.766;9.626;2023-11-21T10:01:51;7.00;99.90
12872;DHT22;6504;53.766;9.626;2023-11-21T10:04:20;7.00;99.90
12872;DHT22;6504;53.766;9.626;2023-11-21T10:06:48;7.00;99.90
12872;DHT22;6504;53.766;9.626;2023-11-21T10:09:18;7.00;99.90
12872;DHT22;6504;53.766;9.626;2023-11-21T10:11:48;7.10;99.90
12872;DHT22;6504;53.766;9.626;2023-11-21T10:14:19;7.00;99.90
12872;DHT22;6504;53.766;9.626;2023-11-21T10:16:49;7.00;99.90
12872;DHT22;6504;53.766;9.626;2023-11-21T10:19:21;7.10;99.90
12872;DHT22;6504;53.766;9.626;2023-11-21T10:21:51;7.10;99.90
12872;DHT22;6504;53.766;9.626;2023-11-21T10:24:19;7.00;99.90
12872;DHT22;6504;53.766;9.626;2023-11-21T10:26:48;7.00;99.90
12872;DHT22;6504;53.766;9.626;2023-11-21T10:29:20;7.00;99.90
12872;DHT22;6504;53.766;9.626;2023-11-21T10:31:50;7.00;99.90
12872;DHT22;6504;53.766;9.626;2023-11-21T10:34:21;7.00;99.90
12872;DHT22;6504;53.766;9.626;2023-11-21T10:36:49;7.00;99.90
12872;DHT22;6504;53.766;9.626;2023-11-21T10:39:18;7.10;99.90
12872;DHT22;6504;53.766;9.626;2023-11-21T10:41:47;7.00;99.90
12872;DHT22;6504;53.766;9.626;2023-11-21T10:44:17;7.10;99.90
12872;DHT22;6504;53.766;9.626;2023-11-21T10:46:49;7.10;99.90
12872;DHT22;6504;53.766;9.626;2023-11-21T10:49:18;7.10;99.90
12872;DHT22;6504;53.766;9.626;2023-11-21T10:51:48;7.10;99.90
12872;DHT22;6504;53.766;9.626;2023-11-21T10:54:19;7.10;99.90
12872;DHT22;6504;53.766;9.626;2023-11-21T10:56:49;7.10;99.90
12872;DHT22;6504;53.766;9.626;2023-11-21T10:59:18;7.20;99.90
12872;DHT22;6504;53.766;9.626;2023-11-21T11:01:48;7.10;99.90
12872;DHT22;6504;53.766;9.626;2023-11-21T11:04:19;7.10;99.90
12872;DHT22;6504;53.766;9.626;2023-11-21T11:06:53;7.20;99.90
12872;DHT22;6504;53.766;9.626;2023-11-21T11:09:23;7.20;99.90
12872;DHT22;6504;53.766;9.626;2023-11-21T11:11:52;7.20;99.90
12872;DHT22;6504;53.766;9.626;2023-11-21T11:14:21;7.30;99.90
12872;DHT22;6504;53.766;9.626;2023-11-21T11:16:54;7.30;99.90
12872;DHT22;6504;53.766;9.626;2023-11-21T11:19:22;7.30;99.90
12872;DHT22;6504;53.766;9.626;2023-11-21T11:21:59;7.30;99.90
12872;DHT22;6504;53.766;9.626;2023-11-21T11:24:41;7.30;99.90
12872;DHT22;6504;53.766;9.626;2023-11-21T11:27:27;7.30;99.90
12872;DHT22;6504;53.766;9.626;2023-11-21T11:30:06;7.30;99.90
12872;DHT22;6504;53.766;9.626;2023-11-21T11:32:43;7.30;99.90
12872;DHT22;6504;53.766;9.626;2023-11-21T11:35:19;7.30;99.90
12872;DHT22;6504;53.766;9.626;2023-11-21T11:37:53;7.30;99.90
12872;DHT22;6504;53.766;9.626;2023-11-21T11:40:22;7.40;99.90
12872;DHT22;6504;53.766;9.626;2023-11-21T11:42:58;7.40;99.90
12872;DHT22;6504;53.766;9.626;2023-11-21T11:45:32;7.40;99.90
12872;DHT22;6504;53.766;9.626;2023-11-21T11:48:03;7.50;99.90
12872;DHT22;6504;53.766;9.626;2023-11-21T11:50:31;7.50;99.90
12872;DHT22;6504;53.766;9.626;2023-11-21T11:53:14;7.60;99.90
12872;DHT22;6504;53.766;9.626;2023-11-21T11:55:43;7.60;99.90
12872;DHT22;6504;53.766;9.626;2023-11-21T11:58:11;7.60;99.90
12872;DHT22;6504;53.766;9.626;2023-11-21T12:00:39;7.60;99.90
12872;DHT22;6504;53.766;9.626;2023-11-21T12:03:10;7.60;99.90
12872;DHT22;6504;53.766;9.626;2023-11-21T12:05:38;7.60;99.90
12872;DHT22;6504;53.766;9.626;2023-11-21T12:08:12;7.60;99.90
12872;DHT22;6504;53.766;9.626;2023-11-21T12:10:40;7.60;99.90
12872;DHT22;6504;53.766;9.626;2023-11-21T12:13:10;7.60;99.90
12872;DHT22;6504;53.766;9.626;2023-11-21T12:15:39;7.70;99.90
12872;DHT22;6504;53.766;9.626;2023-11-21T12:18:09;7.60;99.90
12872;DHT22;6504;53.766;9.626;2023-11-21T12:20:37;7.60;99.90
12872;DHT22;6504;53.766;9.626;2023-11-21T12:23:07;7.50;99.90
12872;DHT22;6504;53.766;9.626;2023-11-21T12:25:39;7.60;99.90
12872;DHT22;6504;53.766;9.626;2023-11-21T12:28:08;7.50;99.90
12872;DHT22;6504;53.766;9.626;2023-11-21T12:30:36;7.50;99.90
12872;DHT22;6504;53.766;9.626;2023-11-21T12:33:06;7.50;99.90
12872;DHT22;6504;53.766;9.626;2023-11-21T12:35:36;7.50;99.90
12872;DHT22;6504;53.766;9.626;2023-11-21T12:38:05;7.40;99.90
12872;DHT22;6504;53.766;9.626;2023-11-21T12:40:35;7.40;99.90
12872;DHT22;6504;53.766;9.626;2023-11-21T12:43:07;7.40;99.90
12872;DHT22;6504;53.766;9.626;2023-11-21T12:45:36;7.40;99.90
12872;DHT22;6504;53.766;9.626;2023-11-21T12:48:05;7.40;99.90
12872;DHT22;6504;53.766;9.626;2023-11-21T12:50:36;7.40;99.90
12872;DHT22;6504;53.766;9.626;2023-11-21T12:53:06;7.40;99.90
12872;DHT22;6504;53.766;9.626;2023-11-21T12:55:36;7.40;99.90
12872;DHT22;6504;53.766;9.626;2023-11-21T12:58:07;7.40;99.90
12872;DHT22;6504;53.766;9.626;2023-11-21T13:00:39;7.40;99.90
12872;DHT22;6504;53.766;9.626;2023-11-21T13:03:11;7.40;99.90
12872;DHT22;6504;53.766;9.626;2023-11-21T13:05:44;7.40;99.90
12872;DHT22;6504;53.766;9.626;2023-11-21T13:08:15;7.40;99.90
12872;DHT22;6504;53.766;9.626;2023-11-21T13:10:49;7.40;99.90
12872;DHT22;6504;53.766;9.626;2023-11-21T13:13:20;7.40;99.90
12872;DHT22;6504;53.766;9.626;2023-11-21T13:15:52;7.40;99.90
12872;DHT22;6504;53.766;9.626;2023-11-21T13:18:23;7.40;99.90
12872;DHT22;6504;53.766;9.626;2023-11-21T13:20:52;7.40;99.90
12872;DHT22;6504;53.766;9.626;2023-11-21T13:23:23;7.40;99.90
12872;DHT22;6504;53.766;9.626;2023-11-21T13:25:51;7.30;99.90
12872;DHT22;6504;53.766;9.626;2023-11-21T13:28:29;7.30;99.90
12872;DHT22;6504;53.766;9.626;2023-11-21T13:30:59;7.30;99.90
12872;DHT22;6504;53.766;9.626;2023-11-21T13:33:29;7.30;99.90
12872;DHT22;6504;53.766;9.626;2023-11-21T13:35:59;7.30;99.90
12872;DHT22;6504;53.766;9.626;2023-11-21T13:38:29;7.30;99.90
12872;DHT22;6504;53.766;9.626;2023-11-21T13:40:59;7.20;99.90
12872;DHT22;6504;53.766;9.626;2023-11-21T13:43:29;7.10;99.90
12872;DHT22;6504;53.766;9.626;2023-11-21T13:45:58;7.10;99.90
12872;DHT22;6504;53.766;9.626;2023-11-21T13:48:29;7.10;99.90
12872;DHT22;6504;53.766;9.626;2023-11-21T13:51:07;7.10;99.90
12872;DHT22;6504;53.766;9.626;2023-11-21T13:53:43;7.10;99.90
12872;DHT22;6504;53.766;9.626;2023-11-21T13:56:12;7.10;99.90
12872;DHT22;6504;53.766;9.626;2023-11-21T13:58:46;7.00;99.90
12872;DHT22;6504;53.766;9.626;2023-11-21T14:01:18;7.00;99.90
12872;DHT22;6504;53.766;9.626;2023-11-21T14:04:09;7.00;99.90
12872;DHT22;6504;53.766;9.626;2023-11-21T14:06:47;7.00;99.90
12872;DHT22;6504;53.766;9.626;2023-11-21T14:09:17;6.90;99.90
12872;DHT22;6504;53.766;9.626;2023-11-21T14:11:50;6.90;99.90
12872;DHT22;6504;53.766;9.626;2023-11-21T14:14:22;6.90;99.90
12872;DHT22;6504;53.766;9.626;2023-11-21T14:16:51;6.80;99.90
12872;DHT22;6504;53.766;9.626;2023-11-21T14:19:20;6.80;99.90
12872;DHT22;6504;53.766;9.626;2023-11-21T14:21:48;6.70;99.90
12872;DHT22;6504;53.766;9.626;2023-11-21T14:24:16;6.60;99.90
12872;DHT22;6504;53.766;9.626;2023-11-21T14:26:46;6.50;99.90
12872;DHT22;6504;53.766;9.626;2023-11-21T14:29:15;6.40;99.90
12872;DHT22;6504;53.766;9.626;2023-11-21T14:31:48;6.40;99.90
12872;DHT22;6504;53.766;9.626;2023-11-21T14:34:18;6.30;99.90
12872;DHT22;6504;53.766;9.626;2023-11-21T14:36:49;6.20;99.90
12872;DHT22;6504;53.766;9.626;2023-11-21T14:39:17;6.20;99.90
12872;DHT22;6504;53.766;9.626;2023-11-21T14:41:50;6.10;99.90
12872;DHT22;6504;53.766;9.626;2023-11-21T14:44:20;6.10;99.90
12872;DHT22;6504;53.766;9.626;2023-11-21T14:46:53;6.10;99.90
12872;DHT22;6504;53.766;9.626;2023-11-21T14:49:24;6.00;99.90
12872;DHT22;6504;53.766;9.626;2023-11-21T14:51:55;6.00;99.90
12872;DHT22;6504;53.766;9.626;2023-11-21T14:54:30;6.00;99.90
12872;DHT22;6504;53.766;9.626;2023-11-21T14:57:07;5.90;99.90
12872;DHT22;6504;53.766;9.626;2023-11-21T14:59:44;5.90;99.90
12872;DHT22;6504;53.766;9.626;2023-11-21T15:02:15;5.90;99.90
12872;DHT22;6504;53.766;9.626;2023-11-21T15:04:45;5.90;99.90
12872;DHT22;6504;53.766;9.626;2023-11-21T15:07:14;5.90;99.90
12872;DHT22;6504;53.766;9.626;2023-11-21T15:09:41;5.90;99.90
12872;DHT22;6504;53.766;9.626;2023-11-21T15:12:10;6.00;99.90
12872;DHT22;6504;53.766;9.626;2023-11-21T15:14:45;6.00;99.90
12872;DHT22;6504;53.766;9.626;2023-11-21T15:17:16;6.00;99.90
12872;DHT22;6504;53.766;9.626;2023-11-21T15:19:50;6.00;99.90
12872;DHT22;6504;53.766;9.626;2023-11-21T15:22:18;6.00;99.90
12872;DHT22;6504;53.766;9.626;2023-11-21T15:24:47;6.00;99.90
12872;DHT22;6504;53.766;9.626;2023-11-21T15:27:16;6.00;99.90
12872;DHT22;6504;53.766;9.626;2023-11-21T15:29:45;6.00;99.90
12872;DHT22;6504;53.766;9.626;2023-11-21T15:32:13;6.00;99.90
12872;DHT22;6504;53.766;9.626;2023-11-21T15:34:43;6.00;99.90
12872;DHT22;6504;53.766;9.626;2023-11-21T15:37:13;6.10;99.90
12872;DHT22;6504;53.766;9.626;2023-11-21T15:39:41;6.10;99.90
12872;DHT22;6504;53.766;9.626;2023-11-21T15:42:09;6.10;99.90
12872;DHT22;6504;53.766;9.626;2023-11-21T15:44:38;6.10;99.90
12872;DHT22;6504;53.766;9.626;2023-11-21T15:47:06;6.10;99.90
12872;DHT22;6504;53.766;9.626;2023-11-21T15:49:36;6.20;99.90
12872;DHT22;6504;53.766;9.626;2023-11-21T15:52:06;6.20;99.90
12872;DHT22;6504;53.766;9.626;2023-11-21T15:54:37;6.10;99.90
12872;DHT22;6504;53.766;9.626;2023-11-21T15:57:07;6.10;99.90
12872;DHT22;6504;53.766;9.626;2023-11-21T15:59:39;6.10;99.90
12872;DHT22;6504;53.766;9.626;2023-11-21T16:02:09;6.20;99.90
12872;DHT22;6504;53.766;9.626;2023-11-21T16:04:39;6.20;99.90
12872;DHT22;6504;53.766;9.626;2023-11-21T16:07:09;6.10;99.90
12872;DHT22;6504;53.766;9.626;2023-11-21T16:09:38;6.10;99.90
12872;DHT22;6504;53.766;9.626;2023-11-21T16:12:09;6.00;99.90
12872;DHT22;6504;53.766;9.626;2023-11-21T16:14:39;6.00;99.90
12872;DHT22;6504;53.766;9.626;2023-11-21T16:17:09;5.90;99.90